createdAt,value
2023-02-11T00:01:48.673Z,-0.38
2023-02-11T00:04:16.842Z,-0.23
2023-02-11T00:06:44.704Z,-0.27
2023-02-11T00:09:11.945Z,-0.13
2023-02-11T00:11:39.365Z,-0.03
2023-02-11T00:14:08.680Z,-0.16
2023-02-11T00:16:36.740Z,-0.29
2023-02-11T00:19:06.312Z,-0.26
2023-02-11T00:21:34.603Z,-0.05
2023-02-11T00:24:02.416Z,-0.34
2023-02-11T00:26:32.702Z,-0.92
2023-02-11T00:29:02.086Z,-1.35
2023-02-11T00:31:32.163Z,-1.20
2023-02-11T00:33:59.511Z,-0.49
2023-02-11T00:36:28.352Z,-0.37
2023-02-11T00:38:56.927Z,-0.46
2023-02-11T00:41:24.869Z,-0.59
2023-02-11T00:43:52.605Z,-1.01
2023-02-11T00:46:20.222Z,-1.31
2023-02-11T00:48:47.946Z,-1.08
2023-02-11T00:51:16.274Z,-0.74
2023-02-11T00:53:43.613Z,-0.81
2023-02-11T00:56:11.392Z,-1.20
2023-02-11T00:58:38.728Z,-1.33
2023-02-11T01:01:06.411Z,-1.36
2023-02-11T01:03:34.601Z,-1.26
2023-02-11T01:06:02.048Z,-0.82
2023-02-11T01:08:30.070Z,-0.93
2023-02-11T01:11:11.928Z,-0.92
2023-02-11T01:13:39.738Z,-0.54
2023-02-11T01:16:09.873Z,-0.81
2023-02-11T01:18:38.486Z,-0.70
2023-02-11T01:21:06.289Z,-0.46
2023-02-11T01:23:33.598Z,-0.75
2023-02-11T01:26:00.915Z,-0.85
2023-02-11T01:28:31.037Z,-0.42
2023-02-11T01:31:02.462Z,-0.17
2023-02-11T01:33:30.769Z,-0.08
2023-02-11T01:36:04.195Z,-0.56
2023-02-11T01:38:32.616Z,-0.99
2023-02-11T01:41:06.010Z,-1.02
2023-02-11T01:43:40.421Z,-0.96
2023-02-11T01:46:34.958Z,-0.67
2023-02-11T01:49:16.470Z,-1.13
2023-02-11T01:51:49.862Z,-0.94
2023-02-11T01:54:39.829Z,-1.02
2023-02-11T01:57:25.087Z,-1.29
2023-02-11T02:00:11.068Z,-1.49
2023-02-11T02:02:58.875Z,-1.35
2023-02-11T02:05:38.271Z,-1.30
2023-02-11T02:08:15.363Z,-1.51
2023-02-11T02:10:48.250Z,-1.66
2023-02-11T02:13:17.456Z,-1.37
2023-02-11T02:15:52.023Z,-1.10
2023-02-11T02:18:56.021Z,-0.81
2023-02-11T02:21:37.835Z,-0.90
2023-02-11T02:24:13.190Z,-0.91
2023-02-11T05:13:14.866Z,-2.64
2023-02-11T05:15:42.620Z,-2.64
2023-02-11T05:18:10.709Z,-2.58
2023-02-11T05:20:39.184Z,-2.53
2023-02-11T05:23:06.418Z,-2.43
2023-02-11T05:25:35.467Z,-2.53
2023-02-11T05:28:03.379Z,-2.48
2023-02-11T05:30:30.855Z,-2.56
2023-02-11T05:32:58.294Z,-2.63
2023-02-11T05:35:26.106Z,-2.71
2023-02-11T05:37:53.499Z,-2.69
2023-02-11T05:40:20.939Z,-2.66
2023-02-11T05:42:48.188Z,-2.71
2023-02-11T05:45:15.571Z,-2.73
2023-02-11T05:47:43.535Z,-2.75
2023-02-11T05:50:11.631Z,-2.81
2023-02-11T05:52:40.000Z,-2.78
2023-02-11T05:55:07.913Z,-2.96
2023-02-11T05:57:35.209Z,-2.82
2023-02-11T06:00:03.100Z,-2.87
2023-02-11T06:02:40.368Z,-2.79
2023-02-11T06:05:08.226Z,-2.85
2023-02-11T06:07:35.551Z,-2.76
2023-02-11T06:10:03.390Z,-2.71
2023-02-11T06:12:30.716Z,-2.64
2023-02-11T06:14:58.465Z,-2.70
2023-02-11T06:17:25.807Z,-2.71
2023-02-11T06:19:53.093Z,-2.68
2023-02-11T06:22:20.484Z,-2.56
2023-02-11T06:25:00.761Z,-2.68
2023-02-11T06:27:29.731Z,-2.49
2023-02-11T06:29:57.087Z,-2.56
2023-02-11T06:32:42.959Z,-2.65
2023-02-11T06:35:12.360Z,-2.64
2023-02-11T06:37:41.421Z,-2.64
2023-02-11T06:40:10.320Z,-2.45
2023-02-11T06:42:39.142Z,-2.45
2023-02-11T06:45:10.778Z,-2.53
2023-02-11T06:47:38.358Z,-2.39
2023-02-11T06:50:08.477Z,-2.36
2023-02-11T06:52:36.304Z,-2.41
2023-02-11T06:55:03.808Z,-2.39
2023-02-11T06:57:31.628Z,-2.18
2023-02-11T06:59:58.930Z,-2.20
2023-02-11T07:02:26.293Z,-2.26
2023-02-11T07:04:53.782Z,-2.29
2023-02-11T07:07:21.554Z,-2.22
2023-02-11T07:09:50.126Z,-2.29
2023-02-11T07:12:17.484Z,-2.25
2023-02-11T07:14:44.733Z,-2.20
2023-02-11T07:17:12.030Z,-2.17
2023-02-11T07:19:39.489Z,-2.12
2023-02-11T07:22:07.010Z,-2.07
2023-02-11T07:24:34.322Z,-2.02
2023-02-11T07:27:01.643Z,-2.06
2023-02-11T07:29:29.345Z,-1.88
2023-02-11T07:31:57.245Z,-1.81
2023-02-11T07:34:24.877Z,-1.85
2023-02-11T07:36:52.526Z,-1.57
2023-02-11T07:39:21.863Z,-1.71
2023-02-11T07:41:49.585Z,-1.70
2023-02-11T07:44:18.652Z,-1.57
2023-02-11T07:46:47.815Z,-1.55
2023-02-11T07:49:15.812Z,-1.52
2023-02-11T07:51:43.213Z,-1.45
2023-02-11T07:54:12.405Z,-1.38
2023-02-11T07:56:40.221Z,-1.23
2023-02-11T07:59:07.925Z,-0.90
2023-02-11T08:01:35.220Z,-0.85
2023-02-11T08:04:03.359Z,-0.54
2023-02-11T08:06:33.184Z,-0.26
2023-02-11T08:09:06.238Z,-0.33
2023-02-11T08:11:34.202Z,-0.46
2023-02-11T08:14:02.435Z,-0.41
2023-02-11T08:16:32.766Z,0.01
2023-02-11T08:19:03.152Z,-0.08
2023-02-11T08:21:31.088Z,-0.04
2023-02-11T08:23:58.425Z,0.06
2023-02-11T08:26:28.671Z,0.08
2023-02-11T08:28:58.039Z,0.19
2023-02-11T08:31:28.558Z,0.26
2023-02-11T08:33:59.861Z,0.35
2023-02-11T08:36:29.671Z,0.40
2023-02-11T08:39:16.151Z,0.43
2023-02-11T08:41:46.311Z,0.46
2023-02-11T08:44:14.237Z,0.76
2023-02-11T08:46:41.541Z,0.64
2023-02-11T08:49:09.072Z,0.74
2023-02-11T08:51:36.416Z,1.13
2023-02-11T08:54:04.334Z,1.12
2023-02-11T08:56:33.227Z,1.09
2023-02-11T08:59:01.543Z,1.27
2023-02-11T09:01:30.589Z,1.06
2023-02-11T09:03:59.062Z,0.91
2023-02-11T09:06:27.915Z,1.00
2023-02-11T09:08:57.112Z,1.12
2023-02-11T09:11:32.446Z,1.40
2023-02-11T09:14:00.434Z,1.40
2023-02-11T09:16:30.543Z,1.62
2023-02-11T09:19:00.008Z,1.86
2023-02-11T09:21:28.131Z,1.92
2023-02-11T09:23:56.154Z,2.04
2023-02-11T09:26:29.157Z,2.51
2023-02-11T09:28:57.091Z,2.37
2023-02-11T09:31:26.858Z,2.54
2023-02-11T09:33:57.529Z,2.77
2023-02-11T09:36:28.776Z,2.48
2023-02-11T09:38:58.897Z,2.75
2023-02-11T09:41:37.804Z,2.58
2023-02-11T09:44:08.904Z,2.78
2023-02-11T09:46:42.217Z,3.14
2023-02-11T09:49:20.075Z,3.36
2023-02-11T09:51:59.311Z,3.62
2023-02-11T09:54:54.801Z,3.73
2023-02-11T09:57:28.525Z,3.51
2023-02-11T09:59:57.650Z,3.35
2023-02-11T10:02:45.378Z,3.49
2023-02-11T10:05:30.398Z,3.65
2023-02-11T10:08:17.123Z,3.90
2023-02-11T10:10:52.826Z,4.07
2023-02-11T10:13:49.619Z,4.43
2023-02-11T10:16:37.398Z,4.39
2023-02-11T10:19:19.442Z,3.96
2023-02-11T10:21:52.780Z,4.30
2023-02-11T10:24:21.184Z,4.19
2023-02-11T10:26:49.641Z,4.41
2023-02-11T10:29:37.148Z,4.54
2023-02-11T10:32:16.315Z,4.70
2023-02-11T10:34:43.726Z,4.34
2023-02-11T10:37:14.807Z,4.71
2023-02-11T10:39:42.484Z,4.92
2023-02-11T10:42:13.058Z,4.55
2023-02-11T10:44:59.252Z,4.64
2023-02-11T10:47:33.379Z,4.53
2023-02-11T10:50:03.708Z,4.71
2023-02-11T10:52:31.841Z,4.67
2023-02-11T10:54:59.134Z,5.44
2023-02-11T10:57:35.326Z,5.34
2023-02-11T11:00:17.892Z,5.06
2023-02-11T11:02:52.256Z,5.24
2023-02-11T11:05:24.046Z,5.47
2023-02-11T11:07:53.281Z,5.38
2023-02-11T11:10:44.676Z,5.89
2023-02-11T11:13:28.002Z,6.34
2023-02-11T11:16:07.491Z,5.78
2023-02-11T11:18:34.931Z,5.57
2023-02-11T11:21:16.469Z,5.50
2023-02-11T11:23:50.494Z,5.90
2023-02-11T11:26:19.201Z,5.81
2023-02-11T11:28:49.200Z,6.20
2023-02-11T11:31:21.661Z,6.46
2023-02-11T11:33:52.386Z,6.49
2023-02-11T11:36:32.263Z,6.50
2023-02-11T11:39:04.418Z,7.32
2023-02-11T11:41:34.630Z,7.19
2023-02-11T11:44:01.950Z,7.12
2023-02-11T11:46:33.999Z,7.70
2023-02-11T11:49:14.156Z,7.33
2023-02-11T11:51:48.506Z,7.71
2023-02-11T11:54:20.067Z,8.33
2023-02-11T11:56:54.041Z,8.28
2023-02-11T11:59:22.907Z,7.69
2023-02-11T12:02:20.474Z,7.51
2023-02-11T12:04:59.584Z,7.44
2023-02-11T12:07:57.051Z,7.81
2023-02-11T12:10:39.610Z,7.54
2023-02-11T12:13:19.105Z,7.65
2023-02-11T12:16:02.281Z,7.75
2023-02-11T12:18:50.643Z,8.38
2023-02-11T12:21:23.108Z,7.67
2023-02-11T12:24:30.504Z,8.13
2023-02-11T12:27:42.832Z,8.07
2023-02-11T12:30:24.369Z,7.92
2023-02-11T12:32:59.763Z,7.96
2023-02-11T12:35:46.821Z,7.84
2023-02-11T12:38:33.436Z,8.04
2023-02-11T12:41:52.394Z,7.96
2023-02-11T12:45:05.775Z,7.93
2023-02-11T12:48:11.345Z,7.62
2023-02-11T12:50:39.225Z,7.48
2023-02-11T12:53:30.035Z,7.57
2023-02-11T12:56:23.826Z,7.40
2023-02-11T12:58:54.189Z,7.38
2023-02-11T13:01:27.787Z,7.56
2023-02-11T13:04:06.515Z,7.82
2023-02-11T13:06:39.980Z,8.19
2023-02-11T13:09:19.650Z,8.57
2023-02-11T13:11:59.123Z,8.64
2023-02-11T13:14:35.313Z,8.31
2023-02-11T13:17:16.179Z,8.68
2023-02-11T13:19:59.492Z,8.80
2023-02-11T13:22:34.589Z,8.63
2023-02-11T13:25:20.678Z,8.63
2023-02-11T13:28:19.246Z,8.40
2023-02-11T13:30:52.105Z,8.14
2023-02-11T13:33:35.033Z,8.75
2023-02-11T13:36:04.576Z,8.97
2023-02-11T13:38:33.936Z,9.13
2023-02-11T13:41:05.500Z,8.72
2023-02-11T13:43:36.705Z,9.17
2023-02-11T13:46:07.294Z,9.12
2023-02-11T13:48:52.596Z,9.21
2023-02-11T13:51:42.827Z,9.66
2023-02-11T13:54:26.161Z,9.51
2023-02-11T13:57:15.746Z,9.55
2023-02-11T13:59:44.526Z,9.43
2023-02-11T14:02:43.279Z,9.45
2023-02-11T14:05:59.003Z,9.05
2023-02-11T14:08:44.472Z,9.33
2023-02-11T14:11:24.216Z,9.30
2023-02-11T14:13:51.503Z,9.59
2023-02-11T14:16:36.493Z,9.57
2023-02-11T14:19:06.004Z,9.51
2023-02-11T14:21:37.348Z,9.55
2023-02-11T14:24:05.218Z,9.81
2023-02-11T14:26:52.224Z,9.19
2023-02-11T14:29:46.148Z,9.26
2023-02-11T14:32:25.435Z,9.08
2023-02-11T14:35:11.654Z,9.20
2023-02-11T14:38:06.974Z,8.94
2023-02-11T14:40:58.982Z,8.86
2023-02-11T14:43:31.598Z,9.01
2023-02-11T14:46:02.379Z,9.01
2023-02-11T14:48:34.996Z,9.36
2023-02-11T14:51:34.818Z,8.94
2023-02-11T14:54:15.226Z,8.71
2023-02-11T14:56:44.702Z,8.61
2023-02-11T14:59:21.929Z,8.67
2023-02-11T15:01:52.326Z,8.72
2023-02-11T15:04:28.858Z,8.82
2023-02-11T15:06:59.935Z,8.77
2023-02-11T15:09:54.205Z,8.75
2023-02-11T15:12:25.359Z,8.59
2023-02-11T15:14:59.184Z,8.69
2023-02-11T15:17:31.762Z,8.65
2023-02-11T15:20:02.223Z,8.69
2023-02-11T15:22:33.216Z,8.53
2023-02-11T15:25:22.851Z,8.57
2023-02-11T15:27:53.198Z,8.76
2023-02-11T15:30:23.738Z,8.63
2023-02-11T15:32:53.677Z,8.53
2023-02-11T15:35:21.019Z,8.64
2023-02-11T15:37:50.620Z,8.54
2023-02-11T15:40:23.031Z,8.54
2023-02-11T15:43:20.145Z,8.41
2023-02-11T15:46:01.590Z,8.38
2023-02-11T15:48:37.173Z,8.33
2023-02-11T15:51:36.281Z,8.38
2023-02-11T15:54:08.306Z,8.30
2023-02-11T15:56:43.426Z,8.23
2023-02-11T15:59:15.639Z,8.19
2023-02-11T16:01:45.402Z,8.23
2023-02-11T16:04:23.254Z,8.22
2023-02-11T16:06:51.988Z,8.11
2023-02-11T16:09:19.239Z,8.17
2023-02-11T16:11:47.173Z,8.05
2023-02-11T16:14:30.202Z,7.90
2023-02-11T16:17:05.895Z,7.79
2023-02-11T16:19:35.336Z,7.78
2023-02-11T16:22:09.264Z,7.75
2023-02-11T16:24:39.512Z,7.98
2023-02-11T16:27:18.560Z,8.11
2023-02-11T16:29:48.174Z,8.19
2023-02-11T16:32:15.846Z,7.95
2023-02-11T16:34:43.437Z,7.50
2023-02-11T16:37:11.206Z,7.34
2023-02-11T16:39:38.713Z,7.51
2023-02-11T16:42:09.190Z,7.62
2023-02-11T16:44:36.618Z,7.54
2023-02-11T16:47:07.340Z,7.46
2023-02-11T16:49:38.356Z,7.35
2023-02-11T16:52:08.711Z,7.30
2023-02-11T16:54:36.087Z,7.15
2023-02-11T16:57:13.689Z,7.04
2023-02-11T16:59:42.189Z,6.89
2023-02-11T17:02:23.621Z,6.85
2023-02-11T17:04:54.168Z,6.81
2023-02-11T17:07:22.311Z,6.70
2023-02-11T17:09:51.707Z,6.61
2023-02-11T17:12:19.897Z,6.54
2023-02-11T17:14:47.683Z,6.46
2023-02-11T17:17:15.990Z,6.38
2023-02-11T17:19:44.042Z,6.28
2023-02-11T17:22:12.062Z,6.19
2023-02-11T17:24:39.381Z,6.14
2023-02-11T17:27:07.509Z,6.05
2023-02-11T17:29:34.852Z,5.98
2023-02-11T17:32:02.674Z,5.93
2023-02-11T17:34:30.007Z,5.91
2023-02-11T17:36:58.707Z,5.83
2023-02-11T17:39:26.873Z,5.81
2023-02-11T17:41:54.243Z,5.77
2023-02-11T17:44:21.505Z,5.77
2023-02-11T17:46:48.922Z,5.74
2023-02-11T17:49:16.488Z,5.59
2023-02-11T17:51:44.212Z,5.52
2023-02-11T17:54:15.167Z,5.44
2023-02-11T17:56:43.122Z,5.31
2023-02-11T17:59:12.281Z,5.32
2023-02-11T18:01:42.461Z,5.24
2023-02-11T18:04:14.924Z,5.20
2023-02-11T18:06:42.892Z,5.13
2023-02-11T18:09:10.764Z,5.19
2023-02-11T18:11:40.052Z,5.17
2023-02-11T18:14:09.047Z,5.15
2023-02-11T18:16:39.090Z,5.08
2023-02-11T18:19:07.657Z,5.07
2023-02-11T18:21:35.935Z,5.04
2023-02-11T18:24:06.682Z,5.02
2023-02-11T18:26:35.056Z,5.04
2023-02-11T18:29:04.231Z,4.96
2023-02-11T18:31:32.211Z,4.94
2023-02-11T18:33:59.550Z,4.90
2023-02-11T18:36:27.033Z,4.85
2023-02-11T18:38:54.569Z,4.84
2023-02-11T18:41:22.017Z,4.81
2023-02-11T18:43:49.309Z,4.82
2023-02-11T18:46:17.432Z,4.91
2023-02-11T18:48:45.423Z,4.82
2023-02-11T18:51:16.108Z,4.90
2023-02-11T18:53:43.478Z,4.82
2023-02-11T18:56:14.249Z,4.78
2023-02-11T18:58:42.073Z,4.71
2023-02-11T19:01:17.186Z,4.58
2023-02-11T19:03:45.643Z,4.72
2023-02-11T19:06:25.561Z,4.77
2023-02-11T19:08:59.831Z,4.41
2023-02-11T19:11:49.914Z,4.35
2023-02-11T19:14:21.749Z,4.35
2023-02-11T19:16:51.200Z,4.37
2023-02-11T19:19:19.594Z,4.38
2023-02-11T19:21:47.671Z,4.51
2023-02-11T19:24:19.754Z,4.52
2023-02-11T19:26:49.223Z,4.37
2023-02-11T19:29:18.000Z,4.40
2023-02-11T19:31:45.888Z,4.38
2023-02-11T19:34:15.573Z,4.47
2023-02-11T19:36:43.187Z,4.44
2023-02-11T19:39:11.123Z,4.47
2023-02-11T19:41:39.574Z,4.43
2023-02-11T19:44:07.899Z,4.35
2023-02-11T19:46:38.489Z,4.27
2023-02-11T19:49:05.863Z,4.30
2023-02-11T19:51:35.633Z,4.20
2023-02-11T19:54:03.130Z,4.20
2023-02-11T19:56:30.448Z,4.18
2023-02-11T19:58:57.868Z,4.11
2023-02-11T20:01:25.954Z,4.09
2023-02-11T20:03:55.087Z,3.72
2023-02-11T20:06:26.159Z,3.91
2023-02-11T20:08:59.062Z,4.09
2023-02-11T20:11:28.614Z,4.08
2023-02-11T20:13:57.794Z,3.92
2023-02-11T20:16:40.998Z,3.92
2023-02-11T20:19:18.466Z,3.89
2023-02-11T20:21:47.657Z,3.80
2023-02-11T20:24:16.412Z,3.47
2023-02-11T20:26:45.191Z,3.02
2023-02-11T20:29:12.910Z,2.57
2023-02-11T20:31:40.251Z,2.47
2023-02-11T20:34:07.605Z,2.35
2023-02-11T20:36:37.484Z,2.66
2023-02-11T20:39:06.990Z,2.75
2023-02-11T20:41:36.709Z,2.98
2023-02-11T20:44:07.565Z,2.94
2023-02-11T20:46:38.355Z,3.03
2023-02-11T20:49:08.556Z,2.91
2023-02-11T20:51:37.484Z,3.27
2023-02-11T20:54:06.428Z,3.32
2023-02-11T20:56:36.654Z,2.93
2023-02-11T20:59:05.237Z,2.65
2023-02-11T21:01:35.736Z,2.55
2023-02-11T21:04:14.073Z,2.73
2023-02-11T21:06:52.037Z,2.78
2023-02-11T21:09:23.498Z,3.03
2023-02-11T21:11:52.693Z,2.51
2023-02-11T21:14:22.288Z,2.40
2023-02-11T21:16:50.658Z,2.91
2023-02-11T21:19:18.490Z,3.11
2023-02-11T21:21:46.327Z,3.03
2023-02-11T21:24:14.255Z,3.20
2023-02-11T21:26:41.567Z,3.16
2023-02-11T21:29:10.068Z,3.17
2023-02-11T21:31:38.200Z,3.22
2023-02-11T21:34:06.807Z,3.10
2023-02-11T21:36:34.190Z,3.16
2023-02-11T21:39:03.685Z,3.15
2023-02-11T21:41:32.155Z,3.07
2023-02-11T21:43:59.381Z,2.99
2023-02-11T21:46:27.736Z,2.97
2023-02-11T21:48:56.674Z,2.98
2023-02-11T21:51:25.969Z,2.90
2023-02-11T21:53:59.556Z,2.71
2023-02-11T21:56:28.193Z,2.45
2023-02-11T21:58:58.463Z,2.73
2023-02-11T22:01:29.144Z,2.83
2023-02-11T22:03:57.054Z,2.75
2023-02-11T22:06:27.388Z,2.68
2023-02-11T22:08:55.493Z,2.81
2023-02-11T22:11:23.474Z,2.68
2023-02-11T22:13:56.304Z,2.78
2023-02-11T22:16:24.858Z,2.70
2023-02-11T22:18:52.827Z,2.67
2023-02-11T22:21:22.850Z,2.53
2023-02-11T22:23:51.923Z,2.56
2023-02-11T22:26:22.189Z,2.49
2023-02-11T22:28:51.039Z,1.80
2023-02-11T22:31:21.601Z,1.71
2023-02-11T22:33:49.005Z,1.26
2023-02-11T22:36:24.723Z,1.68
2023-02-11T22:38:53.836Z,1.69
2023-02-11T22:41:21.959Z,1.29
2023-02-11T22:43:49.775Z,1.13
2023-02-11T22:46:19.454Z,0.99
2023-02-11T22:48:48.108Z,0.87
2023-02-11T22:51:27.967Z,0.63
2023-02-11T22:54:04.826Z,0.95
2023-02-11T22:56:33.835Z,1.06
2023-02-11T22:59:03.780Z,0.92
2023-02-11T23:01:31.731Z,1.32
2023-02-11T23:04:01.807Z,1.23
2023-02-11T23:06:29.144Z,1.51
2023-02-11T23:08:56.656Z,1.66
2023-02-11T23:11:27.827Z,1.67
